Fleur De Lys, Canada
Current Conditions -  °F | °C
As of 9:00 AM on Friday 24 Oct 2014 (Local Time) from CWDH Reporting Station
Clear Clear  
Wind Chill: 31°   Ceiling: Unl
Heat Index: 36°   Visibility: 9mi
Dew Point: 20°   Wind: 7mph
Humidity: 51%   Direction: 100°E
Pressure: 29.98"   Gusts: NA
Location:  50.13°N, 56.1°W
Report Text: CWDH 241100Z AUTO 10006KT 9SM NSC 02/M07 A2998 RMK SLP153 T00231068 WSI/SWOB
Loading
Personal Weather Stations






























Interactive Weather Map
Tropical Storm Tracking
New forecast layout! Learn more

10-Day Weather Forecast

Advertisements
Track Severe Weather on mobile